sensor_id;sensor_type;location;lat;lon;timestamp;P1;durP1;ratioP1;P2;durP2;ratioP2
76176;SDS011;64938;47.696;8.066;2023-07-16T00:00:02;3.57;;;2.40;;
76176;SDS011;64938;47.696;8.066;2023-07-16T00:02:30;2.70;;;2.00;;
76176;SDS011;64938;47.696;8.066;2023-07-16T00:04:55;3.80;;;2.30;;
76176;SDS011;64938;47.696;8.066;2023-07-16T00:07:21;2.67;;;2.47;;
76176;SDS011;64938;47.696;8.066;2023-07-16T00:09:46;2.53;;;2.23;;
76176;SDS011;64938;47.696;8.066;2023-07-16T00:12:12;2.23;;;2.03;;
76176;SDS011;64938;47.696;8.066;2023-07-16T00:14:39;3.00;;;2.70;;
76176;SDS011;64938;47.696;8.066;2023-07-16T00:17:06;3.73;;;2.70;;
76176;SDS011;64938;47.696;8.066;2023-07-16T00:19:32;3.67;;;2.67;;
76176;SDS011;64938;47.696;8.066;2023-07-16T00:21:57;2.53;;;2.33;;
76176;SDS011;64938;47.696;8.066;2023-07-16T00:24:24;3.13;;;2.60;;
76176;SDS011;64938;47.696;8.066;2023-07-16T00:26:50;3.17;;;2.37;;
76176;SDS011;64938;47.696;8.066;2023-07-16T00:29:15;2.80;;;2.50;;
76176;SDS011;64938;47.696;8.066;2023-07-16T00:31:42;2.33;;;2.13;;
76176;SDS011;64938;47.696;8.066;2023-07-16T00:34:11;2.37;;;2.17;;
76176;SDS011;64938;47.696;8.066;2023-07-16T00:36:38;2.80;;;2.60;;
76176;SDS011;64938;47.696;8.066;2023-07-16T00:39:07;3.47;;;2.60;;
76176;SDS011;64938;47.696;8.066;2023-07-16T00:41:32;3.60;;;3.13;;
76176;SDS011;64938;47.696;8.066;2023-07-16T00:43:59;2.73;;;2.53;;
76176;SDS011;64938;47.696;8.066;2023-07-16T00:46:25;3.00;;;2.60;;
76176;SDS011;64938;47.696;8.066;2023-07-16T00:48:50;3.07;;;2.67;;
76176;SDS011;64938;47.696;8.066;2023-07-16T00:51:16;3.23;;;2.73;;
76176;SDS011;64938;47.696;8.066;2023-07-16T00:53:43;2.90;;;2.60;;
76176;SDS011;64938;47.696;8.066;2023-07-16T00:56:09;4.17;;;2.73;;
76176;SDS011;64938;47.696;8.066;2023-07-16T00:58:35;2.60;;;2.40;;
76176;SDS011;64938;47.696;8.066;2023-07-16T01:01:01;2.50;;;2.10;;
76176;SDS011;64938;47.696;8.066;2023-07-16T01:03:26;2.57;;;2.37;;
76176;SDS011;64938;47.696;8.066;2023-07-16T01:09:17;2.57;;;2.30;;
76176;SDS011;64938;47.696;8.066;2023-07-16T01:11:45;3.27;;;2.43;;
76176;SDS011;64938;47.696;8.066;2023-07-16T01:14:18;2.50;;;2.30;;
76176;SDS011;64938;47.696;8.066;2023-07-16T01:16:43;3.53;;;3.20;;
76176;SDS011;64938;47.696;8.066;2023-07-16T01:19:12;2.70;;;2.50;;
76176;SDS011;64938;47.696;8.066;2023-07-16T01:24:44;2.60;;;2.40;;
76176;SDS011;64938;47.696;8.066;2023-07-16T01:30:19;1.90;;;1.80;;
76176;SDS011;64938;47.696;8.066;2023-07-16T01:32:45;2.50;;;2.30;;
76176;SDS011;64938;47.696;8.066;2023-07-16T01:35:11;1.70;;;1.60;;
76176;SDS011;64938;47.696;8.066;2023-07-16T01:37:43;1.83;;;1.73;;
76176;SDS011;64938;47.696;8.066;2023-07-16T01:44:13;2.00;;;1.80;;
76176;SDS011;64938;47.696;8.066;2023-07-16T01:46:38;2.03;;;1.83;;
76176;SDS011;64938;47.696;8.066;2023-07-16T01:49:13;2.20;;;2.00;;
76176;SDS011;64938;47.696;8.066;2023-07-16T01:51:41;2.30;;;2.10;;
76176;SDS011;64938;47.696;8.066;2023-07-16T01:54:07;2.50;;;2.30;;
76176;SDS011;64938;47.696;8.066;2023-07-16T01:56:35;2.20;;;2.00;;
76176;SDS011;64938;47.696;8.066;2023-07-16T01:59:03;2.30;;;2.10;;
76176;SDS011;64938;47.696;8.066;2023-07-16T02:01:33;2.10;;;1.90;;
76176;SDS011;64938;47.696;8.066;2023-07-16T02:04:07;2.20;;;1.97;;
76176;SDS011;64938;47.696;8.066;2023-07-16T02:06:33;1.60;;;1.50;;
76176;SDS011;64938;47.696;8.066;2023-07-16T02:08:58;3.17;;;1.80;;
76176;SDS011;64938;47.696;8.066;2023-07-16T02:11:31;4.37;;;2.00;;
76176;SDS011;64938;47.696;8.066;2023-07-16T02:13:59;5.20;;;1.87;;
76176;SDS011;64938;47.696;8.066;2023-07-16T02:16:28;2.33;;;1.83;;
76176;SDS011;64938;47.696;8.066;2023-07-16T02:18:53;2.63;;;1.93;;
76176;SDS011;64938;47.696;8.066;2023-07-16T02:21:19;2.90;;;2.20;;
76176;SDS011;64938;47.696;8.066;2023-07-16T02:24:03;3.90;;;2.47;;
76176;SDS011;64938;47.696;8.066;2023-07-16T02:26:29;2.37;;;1.87;;
76176;SDS011;64938;47.696;8.066;2023-07-16T02:28:57;3.10;;;2.43;;
76176;SDS011;64938;47.696;8.066;2023-07-16T02:31:24;3.13;;;2.17;;
76176;SDS011;64938;47.696;8.066;2023-07-16T02:34:00;3.23;;;2.57;;
76176;SDS011;64938;47.696;8.066;2023-07-16T02:36:33;3.70;;;2.37;;
76176;SDS011;64938;47.696;8.066;2023-07-16T02:39:05;2.63;;;2.20;;
76176;SDS011;64938;47.696;8.066;2023-07-16T02:41:33;3.73;;;2.37;;
76176;SDS011;64938;47.696;8.066;2023-07-16T02:44:03;4.43;;;2.63;;
76176;SDS011;64938;47.696;8.066;2023-07-16T02:46:30;3.93;;;2.20;;
76176;SDS011;64938;47.696;8.066;2023-07-16T02:48:57;3.13;;;2.50;;
76176;SDS011;64938;47.696;8.066;2023-07-16T02:51:30;4.67;;;2.27;;
76176;SDS011;64938;47.696;8.066;2023-07-16T02:53:59;3.17;;;1.77;;
76176;SDS011;64938;47.696;8.066;2023-07-16T02:56:29;4.50;;;2.07;;
76176;SDS011;64938;47.696;8.066;2023-07-16T02:58:57;5.10;;;2.30;;
76176;SDS011;64938;47.696;8.066;2023-07-16T03:01:23;2.33;;;1.90;;
76176;SDS011;64938;47.696;8.066;2023-07-16T03:03:49;4.80;;;2.47;;
76176;SDS011;64938;47.696;8.066;2023-07-16T03:06:21;3.10;;;2.17;;
76176;SDS011;64938;47.696;8.066;2023-07-16T03:08:55;4.50;;;2.00;;
76176;SDS011;64938;47.696;8.066;2023-07-16T03:11:39;4.43;;;2.37;;
76176;SDS011;64938;47.696;8.066;2023-07-16T03:14:05;3.13;;;1.80;;
76176;SDS011;64938;47.696;8.066;2023-07-16T03:16:51;3.23;;;1.93;;
76176;SDS011;64938;47.696;8.066;2023-07-16T03:19:16;3.90;;;2.10;;
76176;SDS011;64938;47.696;8.066;2023-07-16T03:21:42;4.47;;;2.10;;
76176;SDS011;64938;47.696;8.066;2023-07-16T03:24:15;3.17;;;1.93;;
76176;SDS011;64938;47.696;8.066;2023-07-16T03:26:41;4.07;;;2.20;;
76176;SDS011;64938;47.696;8.066;2023-07-16T03:29:09;3.00;;;1.70;;
76176;SDS011;64938;47.696;8.066;2023-07-16T03:31:35;1.90;;;1.60;;
76176;SDS011;64938;47.696;8.066;2023-07-16T03:34:03;3.40;;;2.17;;
76176;SDS011;64938;47.696;8.066;2023-07-16T03:36:31;3.00;;;2.30;;
76176;SDS011;64938;47.696;8.066;2023-07-16T03:39:02;3.90;;;2.10;;
76176;SDS011;64938;47.696;8.066;2023-07-16T03:41:28;2.43;;;1.80;;
76176;SDS011;64938;47.696;8.066;2023-07-16T03:43:57;2.30;;;2.00;;
76176;SDS011;64938;47.696;8.066;2023-07-16T03:46:23;2.93;;;1.83;;
76176;SDS011;64938;47.696;8.066;2023-07-16T03:49:02;2.93;;;1.77;;
76176;SDS011;64938;47.696;8.066;2023-07-16T03:51:31;3.20;;;1.90;;
76176;SDS011;64938;47.696;8.066;2023-07-16T03:54:04;3.37;;;1.83;;
76176;SDS011;64938;47.696;8.066;2023-07-16T03:56:37;3.70;;;1.90;;
76176;SDS011;64938;47.696;8.066;2023-07-16T03:59:05;3.03;;;1.70;;
76176;SDS011;64938;47.696;8.066;2023-07-16T04:01:38;4.40;;;1.90;;
76176;SDS011;64938;47.696;8.066;2023-07-16T04:04:04;2.57;;;1.80;;
76176;SDS011;64938;47.696;8.066;2023-07-16T04:06:31;3.90;;;2.40;;
76176;SDS011;64938;47.696;8.066;2023-07-16T04:09:05;3.77;;;2.40;;
76176;SDS011;64938;47.696;8.066;2023-07-16T04:11:38;4.40;;;2.17;;
76176;SDS011;64938;47.696;8.066;2023-07-16T04:14:03;2.50;;;1.80;;
76176;SDS011;64938;47.696;8.066;2023-07-16T04:16:31;2.47;;;2.27;;
76176;SDS011;64938;47.696;8.066;2023-07-16T04:19:02;2.60;;;2.33;;
76176;SDS011;64938;47.696;8.066;2023-07-16T04:21:30;2.10;;;1.80;;
76176;SDS011;64938;47.696;8.066;2023-07-16T04:23:55;4.27;;;2.00;;
76176;SDS011;64938;47.696;8.066;2023-07-16T04:26:23;4.33;;;2.43;;
76176;SDS011;64938;47.696;8.066;2023-07-16T04:28:57;2.47;;;1.80;;
76176;SDS011;64938;47.696;8.066;2023-07-16T04:31:26;5.10;;;2.50;;
76176;SDS011;64938;47.696;8.066;2023-07-16T04:33:54;4.23;;;2.10;;
76176;SDS011;64938;47.696;8.066;2023-07-16T04:36:19;3.10;;;2.30;;
76176;SDS011;64938;47.696;8.066;2023-07-16T04:38:52;2.83;;;2.10;;
76176;SDS011;64938;47.696;8.066;2023-07-16T04:41:17;3.10;;;2.27;;
76176;SDS011;64938;47.696;8.066;2023-07-16T04:44:00;2.57;;;2.27;;
76176;SDS011;64938;47.696;8.066;2023-07-16T04:46:29;2.83;;;2.20;;
76176;SDS011;64938;47.696;8.066;2023-07-16T04:49:00;5.40;;;2.57;;
76176;SDS011;64938;47.696;8.066;2023-07-16T04:51:26;3.47;;;2.50;;
76176;SDS011;64938;47.696;8.066;2023-07-16T04:53:57;3.10;;;2.40;;
76176;SDS011;64938;47.696;8.066;2023-07-16T04:56:23;5.20;;;2.80;;
76176;SDS011;64938;47.696;8.066;2023-07-16T04:58:48;2.40;;;2.10;;
76176;SDS011;64938;47.696;8.066;2023-07-16T05:01:14;5.90;;;2.17;;
76176;SDS011;64938;47.696;8.066;2023-07-16T05:03:50;4.43;;;2.10;;
76176;SDS011;64938;47.696;8.066;2023-07-16T05:06:23;4.87;;;2.40;;
76176;SDS011;64938;47.696;8.066;2023-07-16T05:08:48;3.10;;;2.00;;
76176;SDS011;64938;47.696;8.066;2023-07-16T05:11:14;4.57;;;3.00;;
76176;SDS011;64938;47.696;8.066;2023-07-16T05:13:39;3.00;;;2.37;;
76176;SDS011;64938;47.696;8.066;2023-07-16T05:16:08;4.80;;;2.70;;
76176;SDS011;64938;47.696;8.066;2023-07-16T05:18:36;3.57;;;3.13;;
76176;SDS011;64938;47.696;8.066;2023-07-16T05:21:04;3.93;;;2.50;;
76176;SDS011;64938;47.696;8.066;2023-07-16T05:23:47;4.53;;;2.50;;
76176;SDS011;64938;47.696;8.066;2023-07-16T05:26:22;3.57;;;2.07;;
76176;SDS011;64938;47.696;8.066;2023-07-16T05:29:07;7.53;;;3.43;;
76176;SDS011;64938;47.696;8.066;2023-07-16T05:31:36;4.50;;;2.63;;
76176;SDS011;64938;47.696;8.066;2023-07-16T05:34:03;3.03;;;2.60;;
76176;SDS011;64938;47.696;8.066;2023-07-16T05:36:32;3.23;;;2.50;;
76176;SDS011;64938;47.696;8.066;2023-07-16T05:39:17;3.60;;;2.60;;
76176;SDS011;64938;47.696;8.066;2023-07-16T05:41:43;3.10;;;2.37;;
76176;SDS011;64938;47.696;8.066;2023-07-16T05:44:29;5.23;;;2.30;;
76176;SDS011;64938;47.696;8.066;2023-07-16T05:46:55;5.20;;;2.27;;
76176;SDS011;64938;47.696;8.066;2023-07-16T05:49:23;4.33;;;2.80;;
76176;SDS011;64938;47.696;8.066;2023-07-16T05:51:51;3.67;;;2.40;;
76176;SDS011;64938;47.696;8.066;2023-07-16T05:54:17;4.87;;;3.10;;
76176;SDS011;64938;47.696;8.066;2023-07-16T05:56:45;3.90;;;2.50;;
76176;SDS011;64938;47.696;8.066;2023-07-16T05:59:13;4.43;;;2.50;;
76176;SDS011;64938;47.696;8.066;2023-07-16T06:02:07;5.60;;;2.70;;
76176;SDS011;64938;47.696;8.066;2023-07-16T06:04:53;6.80;;;2.77;;
76176;SDS011;64938;47.696;8.066;2023-07-16T06:07:21;3.40;;;2.53;;
76176;SDS011;64938;47.696;8.066;2023-07-16T06:09:52;3.20;;;2.80;;
76176;SDS011;64938;47.696;8.066;2023-07-16T06:12:17;6.10;;;2.63;;
76176;SDS011;64938;47.696;8.066;2023-07-16T06:14:43;4.20;;;2.40;;
76176;SDS011;64938;47.696;8.066;2023-07-16T06:17:08;4.83;;;2.63;;
76176;SDS011;64938;47.696;8.066;2023-07-16T06:19:34;3.40;;;2.60;;
76176;SDS011;64938;47.696;8.066;2023-07-16T06:22:02;3.73;;;2.40;;
76176;SDS011;64938;47.696;8.066;2023-07-16T06:24:28;7.53;;;2.60;;
76176;SDS011;64938;47.696;8.066;2023-07-16T06:26:56;4.60;;;2.27;;
76176;SDS011;64938;47.696;8.066;2023-07-16T06:29:24;4.67;;;2.50;;
76176;SDS011;64938;47.696;8.066;2023-07-16T06:32:00;3.40;;;1.97;;
76176;SDS011;64938;47.696;8.066;2023-07-16T06:34:31;4.53;;;2.40;;
76176;SDS011;64938;47.696;8.066;2023-07-16T06:37:04;3.80;;;2.33;;
76176;SDS011;64938;47.696;8.066;2023-07-16T06:39:31;2.43;;;2.10;;
76176;SDS011;64938;47.696;8.066;2023-07-16T06:41:59;3.10;;;2.20;;
76176;SDS011;64938;47.696;8.066;2023-07-16T06:44:24;3.60;;;1.80;;
76176;SDS011;64938;47.696;8.066;2023-07-16T06:46:50;3.47;;;2.23;;
76176;SDS011;64938;47.696;8.066;2023-07-16T06:49:18;3.77;;;2.07;;
76176;SDS011;64938;47.696;8.066;2023-07-16T06:51:45;3.77;;;2.17;;
76176;SDS011;64938;47.696;8.066;2023-07-16T06:54:18;4.00;;;1.70;;
76176;SDS011;64938;47.696;8.066;2023-07-16T06:56:47;3.20;;;2.10;;
76176;SDS011;64938;47.696;8.066;2023-07-16T06:59:14;3.30;;;1.77;;
76176;SDS011;64938;47.696;8.066;2023-07-16T07:01:40;3.00;;;1.90;;
76176;SDS011;64938;47.696;8.066;2023-07-16T07:04:06;2.87;;;1.80;;
76176;SDS011;64938;47.696;8.066;2023-07-16T07:06:38;10.60;;;2.23;;
76176;SDS011;64938;47.696;8.066;2023-07-16T07:09:04;3.13;;;1.80;;
76176;SDS011;64938;47.696;8.066;2023-07-16T07:11:35;2.80;;;1.65;;
76176;SDS011;64938;47.696;8.066;2023-07-16T07:14:03;3.33;;;1.60;;
76176;SDS011;64938;47.696;8.066;2023-07-16T07:16:39;2.43;;;1.70;;
76176;SDS011;64938;47.696;8.066;2023-07-16T07:19:15;4.30;;;2.10;;
76176;SDS011;64938;47.696;8.066;2023-07-16T07:21:40;4.40;;;2.40;;
76176;SDS011;64938;47.696;8.066;2023-07-16T07:24:12;5.47;;;2.30;;
76176;SDS011;64938;47.696;8.066;2023-07-16T07:26:37;3.80;;;2.00;;
76176;SDS011;64938;47.696;8.066;2023-07-16T07:29:10;4.20;;;2.33;;
76176;SDS011;64938;47.696;8.066;2023-07-16T07:31:38;4.53;;;2.50;;
76176;SDS011;64938;47.696;8.066;2023-07-16T07:34:10;5.07;;;2.70;;
76176;SDS011;64938;47.696;8.066;2023-07-16T07:36:38;2.37;;;2.00;;
76176;SDS011;64938;47.696;8.066;2023-07-16T07:39:07;3.47;;;1.93;;
76176;SDS011;64938;47.696;8.066;2023-07-16T07:41:43;4.23;;;2.07;;
76176;SDS011;64938;47.696;8.066;2023-07-16T07:44:32;4.53;;;2.00;;
76176;SDS011;64938;47.696;8.066;2023-07-16T07:46:58;5.23;;;2.33;;
76176;SDS011;64938;47.696;8.066;2023-07-16T07:49:34;4.40;;;2.40;;
76176;SDS011;64938;47.696;8.066;2023-07-16T07:52:19;4.77;;;2.43;;
76176;SDS011;64938;47.696;8.066;2023-07-16T07:54:47;7.03;;;1.80;;
76176;SDS011;64938;47.696;8.066;2023-07-16T07:57:22;3.17;;;1.80;;
76176;SDS011;64938;47.696;8.066;2023-07-16T07:59:58;2.83;;;1.77;;
76176;SDS011;64938;47.696;8.066;2023-07-16T08:02:35;3.88;;;1.90;;
76176;SDS011;64938;47.696;8.066;2023-07-16T08:05:12;3.05;;;2.05;;
76176;SDS011;64938;47.696;8.066;2023-07-16T08:07:43;4.85;;;2.00;;
76176;SDS011;64938;47.696;8.066;2023-07-16T08:10:29;3.70;;;1.75;;
76176;SDS011;64938;47.696;8.066;2023-07-16T08:13:26;5.63;;;2.10;;
76176;SDS011;64938;47.696;8.066;2023-07-16T08:16:22;3.30;;;2.00;;
76176;SDS011;64938;47.696;8.066;2023-07-16T08:18:47;2.22;;;1.50;;
76176;SDS011;64938;47.696;8.066;2023-07-16T08:21:16;3.65;;;1.92;;
76176;SDS011;64938;47.696;8.066;2023-07-16T08:23:52;2.42;;;1.77;;
76176;SDS011;64938;47.696;8.066;2023-07-16T08:26:18;3.33;;;1.58;;
76176;SDS011;64938;47.696;8.066;2023-07-16T08:28:46;4.47;;;1.80;;
76176;SDS011;64938;47.696;8.066;2023-07-16T08:31:17;3.50;;;1.70;;
76176;SDS011;64938;47.696;8.066;2023-07-16T08:33:58;2.40;;;1.60;;
76176;SDS011;64938;47.696;8.066;2023-07-16T08:36:32;3.90;;;2.10;;
76176;SDS011;64938;47.696;8.066;2023-07-16T08:39:14;3.73;;;2.03;;
76176;SDS011;64938;47.696;8.066;2023-07-16T08:41:40;3.87;;;2.63;;
76176;SDS011;64938;47.696;8.066;2023-07-16T08:44:08;4.10;;;2.00;;
76176;SDS011;64938;47.696;8.066;2023-07-16T08:46:34;3.13;;;2.10;;
76176;SDS011;64938;47.696;8.066;2023-07-16T08:49:00;2.77;;;2.57;;
76176;SDS011;64938;47.696;8.066;2023-07-16T08:51:30;2.17;;;1.87;;
76176;SDS011;64938;47.696;8.066;2023-07-16T08:53:56;4.53;;;1.93;;
76176;SDS011;64938;47.696;8.066;2023-07-16T08:56:22;3.97;;;2.27;;
76176;SDS011;64938;47.696;8.066;2023-07-16T08:58:48;2.97;;;1.80;;
76176;SDS011;64938;47.696;8.066;2023-07-16T09:01:14;3.90;;;2.10;;
76176;SDS011;64938;47.696;8.066;2023-07-16T09:03:43;4.82;;;2.08;;
76176;SDS011;64938;47.696;8.066;2023-07-16T09:06:11;3.75;;;2.22;;
76176;SDS011;64938;47.696;8.066;2023-07-16T09:08:37;6.05;;;1.90;;
76176;SDS011;64938;47.696;8.066;2023-07-16T09:11:04;3.05;;;1.70;;
76176;SDS011;64938;47.696;8.066;2023-07-16T09:13:30;2.38;;;1.77;;
76176;SDS011;64938;47.696;8.066;2023-07-16T09:15:56;3.60;;;2.00;;
76176;SDS011;64938;47.696;8.066;2023-07-16T09:18:26;4.25;;;2.00;;
76176;SDS011;64938;47.696;8.066;2023-07-16T09:20:54;2.97;;;1.92;;
76176;SDS011;64938;47.696;8.066;2023-07-16T09:23:25;2.80;;;1.80;;
76176;SDS011;64938;47.696;8.066;2023-07-16T09:25:53;4.33;;;2.00;;
76176;SDS011;64938;47.696;8.066;2023-07-16T09:28:20;5.33;;;2.30;;
76176;SDS011;64938;47.696;8.066;2023-07-16T09:30:46;4.20;;;2.37;;
76176;SDS011;64938;47.696;8.066;2023-07-16T09:33:13;3.58;;;2.28;;
76176;SDS011;64938;47.696;8.066;2023-07-16T09:35:40;2.77;;;2.30;;
76176;SDS011;64938;47.696;8.066;2023-07-16T09:38:13;3.60;;;2.20;;
76176;SDS011;64938;47.696;8.066;2023-07-16T09:40:39;3.83;;;2.50;;
76176;SDS011;64938;47.696;8.066;2023-07-16T09:43:11;3.60;;;2.70;;
76176;SDS011;64938;47.696;8.066;2023-07-16T09:45:45;3.30;;;2.57;;
76176;SDS011;64938;47.696;8.066;2023-07-16T09:48:12;4.33;;;2.47;;
76176;SDS011;64938;47.696;8.066;2023-07-16T09:50:42;6.03;;;2.57;;
76176;SDS011;64938;47.696;8.066;2023-07-16T09:53:18;5.40;;;2.30;;
76176;SDS011;64938;47.696;8.066;2023-07-16T09:55:45;2.50;;;2.00;;
76176;SDS011;64938;47.696;8.066;2023-07-16T09:58:13;5.03;;;2.37;;
76176;SDS011;64938;47.696;8.066;2023-07-16T10:00:44;4.83;;;2.00;;
76176;SDS011;64938;47.696;8.066;2023-07-16T10:03:11;3.47;;;2.33;;
76176;SDS011;64938;47.696;8.066;2023-07-16T10:05:40;3.80;;;2.10;;
76176;SDS011;64938;47.696;8.066;2023-07-16T10:08:14;2.60;;;1.87;;
76176;SDS011;64938;47.696;8.066;2023-07-16T10:10:43;5.80;;;2.50;;
76176;SDS011;64938;47.696;8.066;2023-07-16T10:13:12;3.43;;;2.27;;
76176;SDS011;64938;47.696;8.066;2023-07-16T10:15:38;3.83;;;2.10;;
76176;SDS011;64938;47.696;8.066;2023-07-16T10:18:05;6.07;;;2.30;;
76176;SDS011;64938;47.696;8.066;2023-07-16T10:20:32;4.23;;;2.37;;
76176;SDS011;64938;47.696;8.066;2023-07-16T10:23:17;3.30;;;2.13;;
76176;SDS011;64938;47.696;8.066;2023-07-16T10:25:59;5.00;;;2.47;;
76176;SDS011;64938;47.696;8.066;2023-07-16T10:28:32;3.23;;;2.40;;
76176;SDS011;64938;47.696;8.066;2023-07-16T10:31:03;5.27;;;2.70;;
76176;SDS011;64938;47.696;8.066;2023-07-16T10:33:29;5.73;;;3.00;;
76176;SDS011;64938;47.696;8.066;2023-07-16T10:35:56;5.90;;;2.87;;
76176;SDS011;64938;47.696;8.066;2023-07-16T10:38:26;3.90;;;2.37;;
76176;SDS011;64938;47.696;8.066;2023-07-16T10:40:52;3.90;;;2.60;;
76176;SDS011;64938;47.696;8.066;2023-07-16T10:43:20;4.33;;;2.40;;
76176;SDS011;64938;47.696;8.066;2023-07-16T10:45:46;6.23;;;2.60;;
76176;SDS011;64938;47.696;8.066;2023-07-16T10:48:12;3.10;;;2.07;;
76176;SDS011;64938;47.696;8.066;2023-07-16T10:50:38;4.70;;;2.50;;
76176;SDS011;64938;47.696;8.066;2023-07-16T10:53:07;2.93;;;2.63;;
76176;SDS011;64938;47.696;8.066;2023-07-16T10:55:35;2.97;;;1.97;;
76176;SDS011;64938;47.696;8.066;2023-07-16T10:58:05;5.43;;;2.70;;
76176;SDS011;64938;47.696;8.066;2023-07-16T11:00:32;4.63;;;2.53;;
76176;SDS011;64938;47.696;8.066;2023-07-16T11:03:01;3.50;;;2.90;;
76176;SDS011;64938;47.696;8.066;2023-07-16T11:05:27;3.20;;;2.73;;
76176;SDS011;64938;47.696;8.066;2023-07-16T11:08:01;3.93;;;2.53;;
76176;SDS011;64938;47.696;8.066;2023-07-16T11:10:29;7.00;;;2.20;;
76176;SDS011;64938;47.696;8.066;2023-07-16T11:12:58;3.90;;;2.40;;
76176;SDS011;64938;47.696;8.066;2023-07-16T11:15:31;4.03;;;3.43;;
76176;SDS011;64938;47.696;8.066;2023-07-16T11:18:02;2.97;;;2.43;;
76176;SDS011;64938;47.696;8.066;2023-07-16T11:20:28;4.47;;;2.37;;
76176;SDS011;64938;47.696;8.066;2023-07-16T11:22:57;4.63;;;2.13;;
76176;SDS011;64938;47.696;8.066;2023-07-16T11:25:28;3.80;;;2.70;;
76176;SDS011;64938;47.696;8.066;2023-07-16T11:27:55;2.87;;;2.43;;
76176;SDS011;64938;47.696;8.066;2023-07-16T11:30:24;3.73;;;2.53;;
76176;SDS011;64938;47.696;8.066;2023-07-16T11:32:49;4.90;;;1.93;;
76176;SDS011;64938;47.696;8.066;2023-07-16T11:35:18;3.23;;;2.17;;
76176;SDS011;64938;47.696;8.066;2023-07-16T11:37:48;3.27;;;2.20;;
76176;SDS011;64938;47.696;8.066;2023-07-16T11:40:26;3.00;;;2.03;;
76176;SDS011;64938;47.696;8.066;2023-07-16T11:42:52;3.30;;;2.33;;
76176;SDS011;64938;47.696;8.066;2023-07-16T11:45:22;3.10;;;2.30;;
76176;SDS011;64938;47.696;8.066;2023-07-16T11:47:53;3.20;;;2.33;;
76176;SDS011;64938;47.696;8.066;2023-07-16T11:50:19;5.70;;;2.43;;
76176;SDS011;64938;47.696;8.066;2023-07-16T11:53:18;4.43;;;2.30;;
76176;SDS011;64938;47.696;8.066;2023-07-16T11:55:36;3.07;;;2.33;;
76176;SDS011;64938;47.696;8.066;2023-07-16T11:58:09;3.90;;;2.30;;
76176;SDS011;64938;47.696;8.066;2023-07-16T12:00:37;2.53;;;2.00;;
76176;SDS011;64938;47.696;8.066;2023-07-16T12:03:05;4.70;;;2.40;;
76176;SDS011;64938;47.696;8.066;2023-07-16T12:05:31;5.70;;;2.40;;
76176;SDS011;64938;47.696;8.066;2023-07-16T12:08:01;3.63;;;2.50;;
76176;SDS011;64938;47.696;8.066;2023-07-16T12:10:33;3.10;;;2.17;;
76176;SDS011;64938;47.696;8.066;2023-07-16T12:12:59;4.23;;;2.40;;
76176;SDS011;64938;47.696;8.066;2023-07-16T12:15:25;4.33;;;2.37;;
76176;SDS011;64938;47.696;8.066;2023-07-16T12:18:00;2.50;;;2.23;;
76176;SDS011;64938;47.696;8.066;2023-07-16T12:20:26;2.70;;;2.23;;
76176;SDS011;64938;47.696;8.066;2023-07-16T12:22:51;4.67;;;2.70;;
76176;SDS011;64938;47.696;8.066;2023-07-16T12:25:17;3.30;;;2.83;;
76176;SDS011;64938;47.696;8.066;2023-07-16T12:27:48;4.87;;;2.80;;
76176;SDS011;64938;47.696;8.066;2023-07-16T12:30:15;3.40;;;2.77;;
76176;SDS011;64938;47.696;8.066;2023-07-16T12:32:40;4.07;;;2.57;;
76176;SDS011;64938;47.696;8.066;2023-07-16T12:35:13;3.07;;;2.20;;
76176;SDS011;64938;47.696;8.066;2023-07-16T12:37:40;4.40;;;2.20;;
76176;SDS011;64938;47.696;8.066;2023-07-16T12:40:06;3.37;;;2.03;;
76176;SDS011;64938;47.696;8.066;2023-07-16T12:42:44;2.30;;;1.90;;
76176;SDS011;64938;47.696;8.066;2023-07-16T12:45:10;2.70;;;2.30;;
76176;SDS011;64938;47.696;8.066;2023-07-16T12:47:39;4.47;;;2.30;;
76176;SDS011;64938;47.696;8.066;2023-07-16T12:50:09;5.13;;;2.43;;
76176;SDS011;64938;47.696;8.066;2023-07-16T12:52:35;2.80;;;2.00;;
76176;SDS011;64938;47.696;8.066;2023-07-16T12:55:02;3.73;;;2.23;;
76176;SDS011;64938;47.696;8.066;2023-07-16T12:57:32;3.00;;;2.00;;
76176;SDS011;64938;47.696;8.066;2023-07-16T13:00:03;2.47;;;2.00;;
76176;SDS011;64938;47.696;8.066;2023-07-16T13:02:30;5.00;;;2.10;;
76176;SDS011;64938;47.696;8.066;2023-07-16T13:05:03;4.20;;;2.07;;
76176;SDS011;64938;47.696;8.066;2023-07-16T13:07:32;3.63;;;2.20;;
76176;SDS011;64938;47.696;8.066;2023-07-16T13:09:57;4.20;;;2.30;;
76176;SDS011;64938;47.696;8.066;2023-07-16T13:12:23;2.80;;;2.17;;
76176;SDS011;64938;47.696;8.066;2023-07-16T13:14:49;3.43;;;2.53;;
76176;SDS011;64938;47.696;8.066;2023-07-16T13:17:25;2.80;;;1.87;;
76176;SDS011;64938;47.696;8.066;2023-07-16T13:19:53;3.63;;;2.50;;
76176;SDS011;64938;47.696;8.066;2023-07-16T13:22:19;5.23;;;2.80;;
76176;SDS011;64938;47.696;8.066;2023-07-16T13:24:45;3.70;;;2.20;;
76176;SDS011;64938;47.696;8.066;2023-07-16T13:27:19;3.40;;;2.50;;
76176;SDS011;64938;47.696;8.066;2023-07-16T13:29:45;4.97;;;2.40;;
76176;SDS011;64938;47.696;8.066;2023-07-16T13:32:11;3.93;;;2.70;;
76176;SDS011;64938;47.696;8.066;2023-07-16T13:34:37;4.47;;;2.50;;
76176;SDS011;64938;47.696;8.066;2023-07-16T13:37:03;3.67;;;2.37;;
76176;SDS011;64938;47.696;8.066;2023-07-16T13:39:31;3.40;;;2.30;;
76176;SDS011;64938;47.696;8.066;2023-07-16T13:41:57;5.10;;;2.47;;
76176;SDS011;64938;47.696;8.066;2023-07-16T13:44:24;2.60;;;2.40;;
76176;SDS011;64938;47.696;8.066;2023-07-16T13:46:58;3.07;;;2.60;;
76176;SDS011;64938;47.696;8.066;2023-07-16T13:49:24;3.53;;;2.40;;
76176;SDS011;64938;47.696;8.066;2023-07-16T13:51:54;3.03;;;2.70;;
76176;SDS011;64938;47.696;8.066;2023-07-16T13:54:21;2.83;;;2.50;;
76176;SDS011;64938;47.696;8.066;2023-07-16T13:56:56;4.20;;;2.70;;
76176;SDS011;64938;47.696;8.066;2023-07-16T13:59:22;4.70;;;2.80;;
76176;SDS011;64938;47.696;8.066;2023-07-16T14:01:47;5.13;;;3.00;;
76176;SDS011;64938;47.696;8.066;2023-07-16T14:05:00;3.13;;;2.80;;
76176;SDS011;64938;47.696;8.066;2023-07-16T14:07:25;3.53;;;2.70;;
76176;SDS011;64938;47.696;8.066;2023-07-16T14:10:19;3.67;;;2.87;;
76176;SDS011;64938;47.696;8.066;2023-07-16T14:12:47;4.30;;;2.57;;
76176;SDS011;64938;47.696;8.066;2023-07-16T14:15:16;3.53;;;2.67;;
76176;SDS011;64938;47.696;8.066;2023-07-16T14:17:48;3.00;;;2.70;;
76176;SDS011;64938;47.696;8.066;2023-07-16T14:20:17;4.40;;;3.20;;
76176;SDS011;64938;47.696;8.066;2023-07-16T14:22:50;4.20;;;2.50;;
76176;SDS011;64938;47.696;8.066;2023-07-16T14:25:15;4.27;;;2.93;;
76176;SDS011;64938;47.696;8.066;2023-07-16T14:27:43;5.53;;;2.60;;
76176;SDS011;64938;47.696;8.066;2023-07-16T14:30:11;3.00;;;2.70;;
76176;SDS011;64938;47.696;8.066;2023-07-16T14:32:49;4.53;;;2.80;;
76176;SDS011;64938;47.696;8.066;2023-07-16T14:35:18;3.73;;;2.90;;
76176;SDS011;64938;47.696;8.066;2023-07-16T14:37:48;3.47;;;2.87;;
76176;SDS011;64938;47.696;8.066;2023-07-16T14:40:15;3.67;;;3.00;;
76176;SDS011;64938;47.696;8.066;2023-07-16T14:42:47;3.93;;;3.50;;
76176;SDS011;64938;47.696;8.066;2023-07-16T14:45:16;3.73;;;3.23;;
76176;SDS011;64938;47.696;8.066;2023-07-16T14:47:45;3.37;;;3.07;;
76176;SDS011;64938;47.696;8.066;2023-07-16T14:50:13;3.60;;;3.30;;
76176;SDS011;64938;47.696;8.066;2023-07-16T14:52:43;4.13;;;3.00;;
76176;SDS011;64938;47.696;8.066;2023-07-16T14:55:11;3.70;;;2.60;;
76176;SDS011;64938;47.696;8.066;2023-07-16T14:57:38;3.50;;;2.90;;
76176;SDS011;64938;47.696;8.066;2023-07-16T15:00:08;4.87;;;3.10;;
76176;SDS011;64938;47.696;8.066;2023-07-16T15:02:39;4.83;;;3.17;;
76176;SDS011;64938;47.696;8.066;2023-07-16T15:05:04;4.37;;;2.97;;
76176;SDS011;64938;47.696;8.066;2023-07-16T15:07:32;4.27;;;2.73;;
76176;SDS011;64938;47.696;8.066;2023-07-16T15:09:59;4.07;;;2.90;;
76176;SDS011;64938;47.696;8.066;2023-07-16T15:12:28;4.20;;;3.00;;
76176;SDS011;64938;47.696;8.066;2023-07-16T15:14:56;3.20;;;2.90;;